createdAt,value
2024-02-27T00:00:23.666Z,6.41
2024-02-27T00:02:52.728Z,6.40
2024-02-27T00:05:20.536Z,6.42
2024-02-27T00:07:48.271Z,6.40
2024-02-27T00:10:16.038Z,6.35
2024-02-27T00:12:43.838Z,6.34
2024-02-27T00:15:11.576Z,6.31
2024-02-27T00:17:39.384Z,6.31
2024-02-27T00:20:09.542Z,6.29
2024-02-27T00:22:37.257Z,6.27
2024-02-27T00:25:05.512Z,6.23
2024-02-27T00:27:33.256Z,6.23
2024-02-27T00:30:00.943Z,6.20
2024-02-27T00:32:28.643Z,6.17
2024-02-27T00:34:56.310Z,6.13
2024-02-27T00:37:25.284Z,6.13
2024-02-27T00:39:54.482Z,6.11
2024-02-27T00:42:22.131Z,6.14
2024-02-27T00:44:49.699Z,6.16
2024-02-27T00:47:17.260Z,6.22
2024-02-27T00:49:44.920Z,6.19
2024-02-27T00:52:12.477Z,6.24
2024-02-27T00:54:41.460Z,6.24
2024-02-27T00:57:09.138Z,6.33
2024-02-27T00:59:36.761Z,6.38
2024-02-27T01:02:04.318Z,6.49
2024-02-27T01:04:33.715Z,6.59
2024-02-27T01:07:01.601Z,6.64
2024-02-27T01:09:29.530Z,6.69
2024-02-27T01:11:58.538Z,6.73
2024-02-27T01:14:26.174Z,6.73
2024-02-27T01:16:53.979Z,6.73
2024-02-27T01:19:21.895Z,6.75
2024-02-27T01:21:49.574Z,6.75
2024-02-27T01:24:17.178Z,6.75
2024-02-27T01:26:44.800Z,6.72
2024-02-27T01:29:13.900Z,6.68
2024-02-27T01:31:41.525Z,6.67
2024-02-27T01:34:09.248Z,6.66
2024-02-27T01:36:36.870Z,6.60
2024-02-27T01:39:05.625Z,6.60
2024-02-27T01:41:33.520Z,6.58
2024-02-27T01:44:01.220Z,6.57
2024-02-27T01:46:31.494Z,6.53
2024-02-27T01:48:59.582Z,6.48
2024-02-27T01:51:27.817Z,6.47
2024-02-27T01:53:58.665Z,6.41
2024-02-27T01:56:26.843Z,6.42
2024-02-27T01:58:55.746Z,6.40
2024-02-27T02:01:24.183Z,6.37
2024-02-27T02:03:55.198Z,6.32
2024-02-27T02:06:23.008Z,6.30
2024-02-27T02:08:50.734Z,6.28
2024-02-27T02:11:18.512Z,6.23
2024-02-27T02:13:46.469Z,6.19
2024-02-27T02:16:15.406Z,6.21
2024-02-27T02:18:43.211Z,6.20
2024-02-27T02:21:12.283Z,6.17
2024-02-27T02:23:40.729Z,6.17
2024-02-27T02:26:08.494Z,6.14
2024-02-27T02:28:36.130Z,6.13
2024-02-27T02:31:04.076Z,6.10
2024-02-27T02:33:31.935Z,6.08
2024-02-27T02:35:59.708Z,6.04
2024-02-27T02:38:28.685Z,6.05
2024-02-27T02:40:56.430Z,6.01
2024-02-27T02:43:24.052Z,5.97
2024-02-27T02:45:51.772Z,5.96
2024-02-27T02:48:19.592Z,5.94
2024-02-27T02:50:48.238Z,5.95
2024-02-27T02:53:15.928Z,5.94
2024-02-27T02:55:46.788Z,5.94
2024-02-27T02:58:14.341Z,5.91
2024-02-27T03:00:42.119Z,5.94
2024-02-27T03:03:09.777Z,5.92
2024-02-27T03:05:38.085Z,5.91
2024-02-27T03:08:06.070Z,5.90
2024-02-27T03:10:33.800Z,5.88
2024-02-27T03:13:02.975Z,5.85
2024-02-27T03:15:31.610Z,5.85
2024-02-27T03:17:59.459Z,5.83
2024-02-27T03:20:28.357Z,5.89
2024-02-27T03:22:55.922Z,5.88
2024-02-27T03:25:23.480Z,5.86
2024-02-27T03:27:51.170Z,5.85
2024-02-27T03:30:20.460Z,5.83
2024-02-27T03:32:48.348Z,5.84
2024-02-27T03:35:16.193Z,5.85
2024-02-27T03:37:44.381Z,5.83
2024-02-27T03:40:12.387Z,5.80
2024-02-27T03:42:40.116Z,5.78
2024-02-27T03:45:10.010Z,5.79
2024-02-27T03:47:39.154Z,5.77
2024-02-27T03:50:07.802Z,5.75
2024-02-27T03:52:35.574Z,5.74
2024-02-27T03:55:03.549Z,5.77
2024-02-27T03:57:31.164Z,5.75
2024-02-27T03:59:58.895Z,5.70
2024-02-27T04:02:26.511Z,5.74
2024-02-27T04:04:55.590Z,5.72
2024-02-27T04:07:23.235Z,5.70
2024-02-27T04:09:50.818Z,5.70
2024-02-27T04:12:18.400Z,5.68
2024-02-27T04:14:46.084Z,5.70
2024-02-27T04:17:13.690Z,5.67
2024-02-27T04:19:41.521Z,5.65
2024-02-27T04:22:10.840Z,5.67
2024-02-27T04:24:38.444Z,5.67
2024-02-27T04:27:06.443Z,5.65
2024-02-27T04:29:34.097Z,5.65
2024-02-27T04:32:01.794Z,5.65
2024-02-27T04:34:29.573Z,5.66
2024-02-27T04:36:58.027Z,5.65
2024-02-27T04:39:29.882Z,5.67
2024-02-27T04:41:57.642Z,5.70
2024-02-27T04:44:25.214Z,5.69
2024-02-27T04:46:52.891Z,5.67
2024-02-27T04:49:20.538Z,5.70
2024-02-27T04:51:49.834Z,5.72
2024-02-27T04:54:18.196Z,5.70
2024-02-27T04:56:47.184Z,5.75
2024-02-27T04:59:14.885Z,5.70
2024-02-27T05:01:42.441Z,5.68
2024-02-27T05:04:10.067Z,5.67
2024-02-27T05:06:37.759Z,5.65
2024-02-27T05:09:05.477Z,5.64
2024-02-27T05:11:33.105Z,5.65
2024-02-27T05:14:02.452Z,5.67
2024-02-27T05:16:30.287Z,5.64
2024-02-27T05:18:58.004Z,5.67
2024-02-27T05:21:25.693Z,5.64
2024-02-27T05:23:53.271Z,5.64
2024-02-27T05:26:20.917Z,5.64
2024-02-27T05:28:48.554Z,5.63
2024-02-27T05:31:26.105Z,5.58
2024-02-27T05:33:54.733Z,5.58
2024-02-27T05:36:22.602Z,5.55
2024-02-27T05:38:51.577Z,5.55
2024-02-27T05:41:18.980Z,5.55
2024-02-27T05:43:46.881Z,5.51
2024-02-27T05:46:14.896Z,5.51
2024-02-27T05:48:44.511Z,5.51
2024-02-27T05:51:12.630Z,5.51
2024-02-27T05:53:40.365Z,5.49
2024-02-27T05:56:08.133Z,5.47
2024-02-27T05:58:36.006Z,5.47
2024-02-27T06:01:03.893Z,5.46
2024-02-27T06:03:31.568Z,5.44
2024-02-27T06:06:01.838Z,5.44
2024-02-27T06:08:29.629Z,5.43
2024-02-27T06:10:57.260Z,5.41
2024-02-27T06:13:26.400Z,5.39
2024-02-27T06:15:55.519Z,5.37
2024-02-27T06:18:23.214Z,5.39
2024-02-27T06:21:09.411Z,5.37
2024-02-27T06:23:38.446Z,5.37
2024-02-27T06:26:09.677Z,5.40
2024-02-27T06:28:37.294Z,5.44
2024-02-27T06:31:05.322Z,5.43
2024-02-27T06:33:32.998Z,5.46
2024-02-27T06:36:00.738Z,5.45
2024-02-27T06:38:28.346Z,5.44
2024-02-27T06:40:57.408Z,5.44
2024-02-27T06:43:26.236Z,5.45
2024-02-27T06:45:53.825Z,5.44
2024-02-27T06:48:21.693Z,5.46
2024-02-27T06:50:52.854Z,5.41
2024-02-27T06:53:20.648Z,5.46
2024-02-27T06:55:49.352Z,5.44
2024-02-27T06:58:18.752Z,5.41
2024-02-27T07:00:46.739Z,5.38
2024-02-27T07:03:14.444Z,5.39
2024-02-27T07:05:52.251Z,5.38
2024-02-27T07:08:21.452Z,5.34
2024-02-27T07:10:49.299Z,5.37
2024-02-27T07:13:18.846Z,5.36
2024-02-27T07:15:48.014Z,5.34
2024-02-27T07:18:17.552Z,5.40
2024-02-27T07:20:46.426Z,5.38
2024-02-27T07:23:14.470Z,5.38
2024-02-27T07:25:42.338Z,5.48
2024-02-27T07:28:16.898Z,5.54
2024-02-27T07:30:51.355Z,5.55
2024-02-27T07:33:19.368Z,5.58
2024-02-27T07:35:47.098Z,5.60
2024-02-27T07:38:14.724Z,5.59
2024-02-27T07:40:42.376Z,5.66
2024-02-27T07:43:10.059Z,5.69
2024-02-27T07:45:37.848Z,5.69
2024-02-27T07:48:07.663Z,5.69
2024-02-27T07:50:35.337Z,5.64
2024-02-27T07:53:03.223Z,5.61
2024-02-27T07:55:30.849Z,5.61
2024-02-27T07:57:58.480Z,5.64
2024-02-27T08:00:26.315Z,5.61
2024-02-27T08:02:54.062Z,5.69
2024-02-27T08:05:27.081Z,5.74
2024-02-27T08:07:54.798Z,5.83
2024-02-27T08:10:22.436Z,5.87
2024-02-27T08:12:50.005Z,5.92
2024-02-27T08:15:17.824Z,5.93
2024-02-27T08:17:45.554Z,5.97
2024-02-27T08:20:13.587Z,5.99
2024-02-27T08:22:42.724Z,6.01
2024-02-27T08:25:10.737Z,6.06
2024-02-27T08:27:38.535Z,6.12
2024-02-27T08:30:07.651Z,6.15
2024-02-27T08:32:35.469Z,6.08
2024-02-27T08:35:03.917Z,6.09
2024-02-27T08:37:31.658Z,6.14
2024-02-27T08:40:00.882Z,6.22
2024-02-27T08:42:28.613Z,6.25
2024-02-27T08:44:56.276Z,6.30
2024-02-27T08:47:24.047Z,6.33
2024-02-27T08:49:52.112Z,6.30
2024-02-27T08:52:19.782Z,6.20
2024-02-27T08:54:47.628Z,6.19
2024-02-27T08:57:17.082Z,6.12
2024-02-27T08:59:47.592Z,6.20
2024-02-27T09:02:15.482Z,6.19
2024-02-27T09:04:43.711Z,6.25
2024-02-27T09:07:12.755Z,6.33
2024-02-27T09:09:40.842Z,6.38
2024-02-27T09:12:10.702Z,6.46
2024-02-27T09:14:40.411Z,6.46
2024-02-27T09:17:08.198Z,6.49
2024-02-27T09:19:36.060Z,6.46
2024-02-27T09:22:04.069Z,6.51
2024-02-27T09:24:31.888Z,6.55
2024-02-27T09:27:02.128Z,6.56
2024-02-27T09:29:31.479Z,6.58
2024-02-27T09:32:00.746Z,6.46
2024-02-27T09:34:28.510Z,6.61
2024-02-27T09:36:56.290Z,6.66
2024-02-27T09:39:24.991Z,6.69
2024-02-27T09:41:59.840Z,6.78
2024-02-27T09:44:27.793Z,6.80
2024-02-27T09:46:56.082Z,6.94
2024-02-27T09:49:36.545Z,7.13
2024-02-27T09:52:11.654Z,7.28
2024-02-27T09:54:39.816Z,7.32
2024-02-27T09:57:08.442Z,7.37
2024-02-27T09:59:38.367Z,7.48
2024-02-27T10:02:09.781Z,7.38
2024-02-27T10:04:40.234Z,7.41
2024-02-27T10:07:12.129Z,7.38
2024-02-27T10:09:42.226Z,7.34
2024-02-27T10:12:11.716Z,7.37
2024-02-27T10:14:40.345Z,7.40
2024-02-27T10:17:08.938Z,7.32
2024-02-27T10:19:39.769Z,7.33
2024-02-27T10:22:07.784Z,7.34
2024-02-27T10:24:36.041Z,7.35
2024-02-27T10:27:08.699Z,7.35
2024-02-27T10:29:37.163Z,7.46
2024-02-27T10:32:07.497Z,7.69
2024-02-27T10:34:35.297Z,7.84
2024-02-27T10:37:05.856Z,7.94
2024-02-27T10:39:34.542Z,7.94
2024-02-27T10:42:02.481Z,7.93
2024-02-27T10:44:30.459Z,7.95
2024-02-27T10:47:00.761Z,8.05
2024-02-27T10:49:29.500Z,8.29
2024-02-27T10:52:01.442Z,8.37
2024-02-27T10:54:32.710Z,8.41
2024-02-27T10:57:01.600Z,8.57
2024-02-27T10:59:32.842Z,8.49
2024-02-27T11:02:01.588Z,8.58
2024-02-27T11:04:33.751Z,8.73
2024-02-27T11:07:04.993Z,8.83
2024-02-27T11:09:36.084Z,8.57
2024-02-27T11:12:04.970Z,8.56
2024-02-27T11:14:39.011Z,8.54
2024-02-27T11:17:11.741Z,8.59
2024-02-27T11:19:45.342Z,8.69
2024-02-27T11:22:14.014Z,8.88
2024-02-27T11:24:43.096Z,9.07
2024-02-27T11:27:13.011Z,9.15
2024-02-27T11:29:41.259Z,9.48
2024-02-27T11:32:09.309Z,9.53
2024-02-27T11:34:37.091Z,9.46
2024-02-27T11:37:09.205Z,9.62
2024-02-27T11:39:37.282Z,9.80
2024-02-27T11:42:09.260Z,9.85
2024-02-27T11:45:03.290Z,9.71
2024-02-27T11:47:36.305Z,9.69
2024-02-27T11:50:04.837Z,9.48
2024-02-27T11:52:35.132Z,9.51
2024-02-27T11:55:07.256Z,9.68
2024-02-27T11:57:37.953Z,9.78
2024-02-27T12:00:08.981Z,9.93
2024-02-27T12:02:37.224Z,10.16
2024-02-27T12:05:09.180Z,10.19
2024-02-27T12:07:36.958Z,10.09
2024-02-27T12:10:10.477Z,9.78
2024-02-27T12:12:41.074Z,9.85
2024-02-27T12:15:10.809Z,9.93
2024-02-27T12:17:38.810Z,9.94
2024-02-27T12:20:10.604Z,9.78
2024-02-27T12:22:39.459Z,9.66
2024-02-27T12:25:07.573Z,9.61
2024-02-27T12:27:39.391Z,9.57
2024-02-27T12:30:11.704Z,9.56
2024-02-27T12:32:43.431Z,9.60
2024-02-27T12:35:13.291Z,9.86
2024-02-27T12:37:41.821Z,10.03
2024-02-27T12:40:12.888Z,10.16
2024-02-27T12:42:41.795Z,10.06
2024-02-27T12:45:13.294Z,10.13
2024-02-27T12:47:42.984Z,10.15
2024-02-27T12:50:12.209Z,10.26
2024-02-27T12:52:41.990Z,10.18
2024-02-27T12:55:11.161Z,10.27
2024-02-27T12:57:39.163Z,9.99
2024-02-27T13:00:10.531Z,10.31
2024-02-27T13:02:42.611Z,10.41
2024-02-27T13:05:11.744Z,10.75
2024-02-27T13:07:40.631Z,10.78
2024-02-27T13:10:09.069Z,10.66
2024-02-27T13:12:36.844Z,10.63
2024-02-27T13:15:05.122Z,10.61
2024-02-27T13:17:32.880Z,10.51
2024-02-27T13:20:02.128Z,10.67
2024-02-27T13:22:29.773Z,10.64
2024-02-27T13:24:57.751Z,10.61
2024-02-27T13:27:25.493Z,10.34
2024-02-27T13:29:54.904Z,10.25
2024-02-27T13:32:22.486Z,10.40
2024-02-27T13:34:50.254Z,10.38
2024-02-27T13:37:19.384Z,10.38
2024-02-27T13:39:47.136Z,10.48
2024-02-27T13:42:15.134Z,10.33
2024-02-27T13:44:42.858Z,10.39
2024-02-27T13:47:11.910Z,10.36
2024-02-27T13:49:39.997Z,10.32
2024-02-27T13:52:08.020Z,10.32
2024-02-27T13:54:39.377Z,10.09
2024-02-27T13:57:07.396Z,9.99
2024-02-27T13:59:35.036Z,10.07
2024-02-27T14:02:02.847Z,10.00
2024-02-27T14:04:30.729Z,9.97
2024-02-27T14:06:59.840Z,9.88
2024-02-27T14:09:27.478Z,9.89
2024-02-27T14:11:57.031Z,9.99
2024-02-27T14:14:24.774Z,9.97
2024-02-27T14:16:52.475Z,10.07
2024-02-27T14:19:20.149Z,10.31
2024-02-27T14:21:47.865Z,10.46
2024-02-27T14:24:15.516Z,10.51
2024-02-27T14:26:43.332Z,10.63
2024-02-27T14:29:12.324Z,10.34
2024-02-27T14:31:40.397Z,10.29
2024-02-27T14:34:08.322Z,10.07
2024-02-27T14:36:36.257Z,10.07
2024-02-27T14:39:04.037Z,10.27
2024-02-27T14:41:31.868Z,10.29
2024-02-27T14:43:59.564Z,10.33
2024-02-27T14:46:29.166Z,10.46
2024-02-27T14:48:56.984Z,10.51
2024-02-27T14:51:25.608Z,10.41
2024-02-27T14:53:53.274Z,10.40
2024-02-27T14:56:20.873Z,10.28
2024-02-27T14:58:48.633Z,10.33
2024-02-27T15:01:16.432Z,10.32
2024-02-27T15:03:45.640Z,10.27
2024-02-27T15:06:13.868Z,10.06
2024-02-27T15:08:41.574Z,10.06
2024-02-27T15:11:09.344Z,9.92
2024-02-27T15:13:37.054Z,9.86
2024-02-27T15:16:05.021Z,9.90
2024-02-27T15:18:32.646Z,9.90
2024-02-27T15:21:05.226Z,9.87
2024-02-27T15:23:32.982Z,9.82
2024-02-27T15:26:00.886Z,9.78
2024-02-27T15:28:29.361Z,9.80
2024-02-27T15:30:57.132Z,9.76
2024-02-27T15:33:25.041Z,9.74
2024-02-27T15:35:52.694Z,9.74
2024-02-27T15:38:21.696Z,9.74
2024-02-27T15:40:49.308Z,9.75
2024-02-27T15:43:16.907Z,9.51
2024-02-27T15:45:44.546Z,9.45
2024-02-27T15:48:12.407Z,9.60
2024-02-27T15:50:40.117Z,9.42
2024-02-27T15:53:07.762Z,9.35
2024-02-27T15:55:36.872Z,9.32
2024-02-27T15:58:04.746Z,9.25
2024-02-27T16:00:32.551Z,9.29
2024-02-27T16:03:05.810Z,9.28
2024-02-27T16:05:34.008Z,9.29
2024-02-27T16:08:01.705Z,9.27
2024-02-27T16:10:29.386Z,9.23
2024-02-27T16:12:58.769Z,9.24
2024-02-27T16:15:26.470Z,9.23
2024-02-27T16:17:54.310Z,9.16
2024-02-27T16:20:21.950Z,9.17
2024-02-27T16:22:49.527Z,9.15
2024-02-27T16:25:17.116Z,9.17
2024-02-27T16:27:44.766Z,9.06
2024-02-27T16:30:16.267Z,9.03
2024-02-27T16:32:46.441Z,9.01
2024-02-27T16:35:14.236Z,8.99
2024-02-27T16:37:41.926Z,8.97
2024-02-27T16:40:10.452Z,8.98
2024-02-27T16:42:38.174Z,8.94
2024-02-27T16:45:06.780Z,8.89
2024-02-27T16:47:38.896Z,8.80
2024-02-27T16:50:07.453Z,8.81
2024-02-27T16:52:35.204Z,8.80
2024-02-27T16:55:03.069Z,8.77
2024-02-27T16:57:30.840Z,8.82
2024-02-27T16:59:58.512Z,8.73
2024-02-27T17:02:26.193Z,8.70
2024-02-27T17:04:55.321Z,8.69
2024-02-27T17:07:23.714Z,8.65
2024-02-27T17:09:51.482Z,8.62
2024-02-27T17:12:19.221Z,8.62
2024-02-27T17:14:46.850Z,8.61
2024-02-27T17:17:14.737Z,8.57
2024-02-27T17:19:42.508Z,8.59
2024-02-27T17:22:11.502Z,8.55
2024-02-27T17:24:39.266Z,8.53
2024-02-27T17:27:07.550Z,8.48
2024-02-27T17:29:35.406Z,8.42
2024-02-27T17:32:03.625Z,8.43
2024-02-27T17:34:31.393Z,8.39
2024-02-27T17:36:59.142Z,8.41
2024-02-27T17:39:28.267Z,8.37
2024-02-27T17:41:55.895Z,8.36
2024-02-27T17:44:24.559Z,8.36
2024-02-27T17:46:52.198Z,8.33
2024-02-27T17:49:20.116Z,8.29
2024-02-27T17:51:47.872Z,8.33
2024-02-27T17:54:15.605Z,8.33
2024-02-27T17:56:46.803Z,8.29
2024-02-27T17:59:15.664Z,8.26
2024-02-27T18:01:43.329Z,8.27
2024-02-27T18:04:11.107Z,8.27
2024-02-27T18:06:38.953Z,8.28
2024-02-27T18:09:06.725Z,8.27
2024-02-27T18:11:34.436Z,8.24
2024-02-27T18:14:03.473Z,8.24
2024-02-27T18:16:31.129Z,8.23
2024-02-27T18:18:58.946Z,8.21
2024-02-27T18:21:26.749Z,8.17
2024-02-27T18:23:54.345Z,8.15
2024-02-27T18:26:22.008Z,8.15
2024-02-27T18:28:49.612Z,8.13
2024-02-27T18:31:25.432Z,8.08
2024-02-27T18:33:53.442Z,8.04
2024-02-27T18:36:21.303Z,8.00
2024-02-27T18:38:48.926Z,7.96
2024-02-27T18:41:16.581Z,7.87
2024-02-27T18:43:44.310Z,7.80
2024-02-27T18:46:13.562Z,7.76
2024-02-27T18:48:42.800Z,7.72
2024-02-27T18:51:11.781Z,7.67
2024-02-27T18:53:40.987Z,7.59
2024-02-27T18:56:08.936Z,7.55
2024-02-27T18:58:36.625Z,7.50
2024-02-27T19:01:05.302Z,7.36
2024-02-27T19:03:33.112Z,7.31
2024-02-27T19:06:04.645Z,7.21
2024-02-27T19:08:32.231Z,7.14
2024-02-27T19:11:08.510Z,7.04
2024-02-27T19:13:37.307Z,6.92
2024-02-27T19:16:05.217Z,6.89
2024-02-27T19:18:33.757Z,6.82
2024-02-27T19:21:01.424Z,6.72
2024-02-27T19:23:29.082Z,6.65
2024-02-27T19:25:56.973Z,6.62
2024-02-27T19:28:26.016Z,6.56
2024-02-27T19:30:53.721Z,6.57
2024-02-27T19:33:21.477Z,6.59
2024-02-27T19:35:49.184Z,6.60
2024-02-27T19:38:19.383Z,6.63
2024-02-27T19:40:47.789Z,6.60
2024-02-27T19:43:16.297Z,6.63
2024-02-27T19:45:46.216Z,6.64
2024-02-27T19:48:14.195Z,6.68
2024-02-27T19:50:41.851Z,6.68
2024-02-27T19:53:09.500Z,6.73
2024-02-27T19:55:38.765Z,6.74
2024-02-27T19:58:06.629Z,6.74
2024-02-27T20:00:34.800Z,6.79
2024-02-27T20:03:04.476Z,6.80
2024-02-27T20:05:32.267Z,6.80
2024-02-27T20:07:59.823Z,6.82
2024-02-27T20:10:27.455Z,6.81
2024-02-27T20:12:55.135Z,6.82
2024-02-27T20:15:22.789Z,6.84
2024-02-27T20:17:50.874Z,6.87
2024-02-27T20:20:20.136Z,6.88
2024-02-27T20:22:48.127Z,6.86
2024-02-27T20:25:15.787Z,6.78
2024-02-27T20:27:46.868Z,6.79
2024-02-27T20:30:14.811Z,6.88
2024-02-27T20:32:42.733Z,6.86
2024-02-27T20:35:10.325Z,6.89
2024-02-27T20:37:39.358Z,6.88
2024-02-27T20:40:10.316Z,6.87
2024-02-27T20:42:38.007Z,6.86
2024-02-27T20:45:06.964Z,6.84
2024-02-27T20:47:34.572Z,6.86
2024-02-27T20:50:02.677Z,6.86
2024-02-27T20:52:31.411Z,6.85
2024-02-27T20:55:00.609Z,6.83
2024-02-27T20:57:31.954Z,6.82
2024-02-27T21:00:07.270Z,6.80
2024-02-27T21:02:34.943Z,6.79
2024-02-27T21:05:02.816Z,6.79
2024-02-27T21:07:30.425Z,6.78
2024-02-27T21:10:03.199Z,6.77
2024-02-27T21:12:31.230Z,6.79
2024-02-27T21:15:01.502Z,6.77
2024-02-27T21:17:30.620Z,6.79
2024-02-27T21:19:58.427Z,6.80
2024-02-27T21:22:26.209Z,6.80
2024-02-27T21:24:54.364Z,6.79
2024-02-27T21:27:23.621Z,6.78
2024-02-27T21:29:51.307Z,6.78
2024-02-27T21:32:19.141Z,6.79
2024-02-27T21:34:46.835Z,6.75
2024-02-27T21:37:14.741Z,6.77
2024-02-27T21:39:42.422Z,6.79
2024-02-27T21:42:10.129Z,6.81
2024-02-27T21:44:39.135Z,6.82
2024-02-27T21:47:06.929Z,6.83
2024-02-27T21:49:34.580Z,6.84
2024-02-27T21:52:04.004Z,6.85
2024-02-27T21:54:32.375Z,6.84
2024-02-27T21:57:00.036Z,6.84
2024-02-27T21:59:27.738Z,6.86
2024-02-27T22:01:56.778Z,6.85
2024-02-27T22:04:24.426Z,6.82
2024-02-27T22:06:52.173Z,6.84
2024-02-27T22:09:19.798Z,6.85
2024-02-27T22:11:47.557Z,6.85
2024-02-27T22:14:15.202Z,6.83
2024-02-27T22:16:43.022Z,6.82
2024-02-27T22:19:12.397Z,6.82
2024-02-27T22:21:40.942Z,6.81
2024-02-27T22:24:08.634Z,6.80
2024-02-27T22:26:37.045Z,6.76
2024-02-27T22:29:04.621Z,6.77
2024-02-27T22:31:32.531Z,6.82
2024-02-27T22:34:00.111Z,6.78
2024-02-27T22:36:29.308Z,6.76
2024-02-27T22:38:57.010Z,6.71
2024-02-27T22:41:24.713Z,6.72
2024-02-27T22:43:52.373Z,6.69
2024-02-27T22:46:25.567Z,6.66
2024-02-27T22:48:53.326Z,6.59
2024-02-27T22:51:21.196Z,6.56
2024-02-27T22:53:50.248Z,6.59
2024-02-27T22:56:17.947Z,6.57
2024-02-27T22:58:45.486Z,6.58
2024-02-27T23:01:15.359Z,6.52
2024-02-27T23:03:43.026Z,6.56
2024-02-27T23:06:10.759Z,6.54
2024-02-27T23:08:38.476Z,6.52
2024-02-27T23:11:07.689Z,6.51
2024-02-27T23:13:35.237Z,6.52
2024-02-27T23:16:03.082Z,6.52
2024-02-27T23:18:30.743Z,6.49
2024-02-27T23:20:58.594Z,6.50
2024-02-27T23:23:26.157Z,6.46
2024-02-27T23:25:53.709Z,6.47
2024-02-27T23:28:25.791Z,6.48
2024-02-27T23:30:53.880Z,6.45
2024-02-27T23:33:21.663Z,6.45
2024-02-27T23:35:49.341Z,6.45
2024-02-27T23:38:18.447Z,6.45
2024-02-27T23:40:47.347Z,6.40
2024-02-27T23:43:15.105Z,6.41
2024-02-27T23:45:44.732Z,6.39
2024-02-27T23:48:12.544Z,6.38
2024-02-27T23:50:40.248Z,6.39
2024-02-27T23:53:07.784Z,6.37
2024-02-27T23:55:36.570Z,6.35
2024-02-27T23:58:04.481Z,6.31
